sensor_id;sensor_type;location;lat;lon;timestamp;pressure;altitude;pressure_sealevel;temperature;humidity
56414;BME280;42318;48.452;19.526;2023-02-28T00:05:30;99267.47;;;19.28;48.12
56414;BME280;42318;48.452;19.526;2023-02-28T00:13:06;99264.88;;;19.33;47.81
56414;BME280;42318;48.452;19.526;2023-02-28T00:20:37;99269.13;;;19.29;47.60
56414;BME280;42318;48.452;19.526;2023-02-28T00:28:08;99269.03;;;19.35;47.55
56414;BME280;42318;48.452;19.526;2023-02-28T00:35:39;99273.28;;;19.43;47.23
56414;BME280;42318;48.452;19.526;2023-02-28T00:43:10;99264.88;;;19.33;47.39
56414;BME280;42318;48.452;19.526;2023-02-28T00:50:41;99278.56;;;19.26;47.31
56414;BME280;42318;48.452;19.526;2023-02-28T00:58:11;99281.28;;;19.26;47.19
56414;BME280;42318;48.452;19.526;2023-02-28T01:05:42;99278.81;;;19.25;47.14
56414;BME280;42318;48.452;19.526;2023-02-28T01:13:13;99281.06;;;19.28;47.07
56414;BME280;42318;48.452;19.526;2023-02-28T01:20:44;99284.13;;;19.31;46.37
56414;BME280;42318;48.452;19.526;2023-02-28T01:28:16;99291.34;;;19.26;46.89
56414;BME280;42318;48.452;19.526;2023-02-28T01:35:47;99297.13;;;19.29;46.84
56414;BME280;42318;48.452;19.526;2023-02-28T01:43:26;99292.06;;;19.33;46.80
56414;BME280;42318;48.452;19.526;2023-02-28T01:51:02;99301.50;;;19.30;46.70
56414;BME280;42318;48.452;19.526;2023-02-28T01:58:35;99299.75;;;19.36;46.48
56414;BME280;42318;48.452;19.526;2023-02-28T02:06:06;99285.31;;;19.24;46.64
56414;BME280;42318;48.452;19.526;2023-02-28T02:21:35;99316.25;;;19.23;46.86
56414;BME280;42318;48.452;19.526;2023-02-28T02:37:15;99300.66;;;19.30;46.39
56414;BME280;42318;48.452;19.526;2023-02-28T02:44:58;99306.69;;;19.32;46.27
56414;BME280;42318;48.452;19.526;2023-02-28T02:52:37;99317.81;;;19.30;46.45
56414;BME280;42318;48.452;19.526;2023-02-28T03:00:11;99322.53;;;19.35;46.33
56414;BME280;42318;48.452;19.526;2023-02-28T03:07:43;99309.09;;;19.40;46.08
56414;BME280;42318;48.452;19.526;2023-02-28T03:15:26;99310.47;;;19.31;46.41
56414;BME280;42318;48.452;19.526;2023-02-28T03:23:13;99315.22;;;19.35;46.07
56414;BME280;42318;48.452;19.526;2023-02-28T03:31:00;99312.97;;;19.32;46.52
56414;BME280;42318;48.452;19.526;2023-02-28T03:38:42;99313.56;;;19.34;46.08
56414;BME280;42318;48.452;19.526;2023-02-28T03:46:19;99324.91;;;19.31;46.40
56414;BME280;42318;48.452;19.526;2023-02-28T03:53:54;99318.50;;;19.26;46.41
56414;BME280;42318;48.452;19.526;2023-02-28T04:01:44;99318.47;;;19.14;46.64
56414;BME280;42318;48.452;19.526;2023-02-28T04:09:15;99322.25;;;19.13;46.63
56414;BME280;42318;48.452;19.526;2023-02-28T04:16:45;99324.59;;;19.09;46.72
56414;BME280;42318;48.452;19.526;2023-02-28T04:24:19;99322.94;;;19.08;46.73
56414;BME280;42318;48.452;19.526;2023-02-28T04:31:50;99322.13;;;19.20;46.75
56414;BME280;42318;48.452;19.526;2023-02-28T04:39:24;99331.63;;;19.29;46.17
56414;BME280;42318;48.452;19.526;2023-02-28T04:46:56;99333.16;;;19.25;46.27
56414;BME280;42318;48.452;19.526;2023-02-28T04:54:26;99332.41;;;19.18;46.18
56414;BME280;42318;48.452;19.526;2023-02-28T05:01:58;99329.47;;;19.19;46.27
56414;BME280;42318;48.452;19.526;2023-02-28T05:09:29;99328.03;;;19.17;46.44
56414;BME280;42318;48.452;19.526;2023-02-28T05:17:00;99326.97;;;19.18;46.54
56414;BME280;42318;48.452;19.526;2023-02-28T05:24:31;99317.63;;;19.13;46.30
56414;BME280;42318;48.452;19.526;2023-02-28T05:32:01;99315.66;;;19.21;46.10
56414;BME280;42318;48.452;19.526;2023-02-28T05:39:32;99313.75;;;19.21;46.04
56414;BME280;42318;48.452;19.526;2023-02-28T05:47:03;99320.94;;;19.16;45.93
56414;BME280;42318;48.452;19.526;2023-02-28T05:54:34;99333.97;;;19.25;45.80
56414;BME280;42318;48.452;19.526;2023-02-28T06:02:08;99341.84;;;19.15;46.08
56414;BME280;42318;48.452;19.526;2023-02-28T06:09:41;99341.63;;;19.17;46.35
56414;BME280;42318;48.452;19.526;2023-02-28T06:17:12;99344.09;;;19.18;46.05
56414;BME280;42318;48.452;19.526;2023-02-28T06:24:42;99344.47;;;19.22;46.02
56414;BME280;42318;48.452;19.526;2023-02-28T06:32:13;99352.41;;;19.23;45.94
56414;BME280;42318;48.452;19.526;2023-02-28T06:39:44;99355.72;;;19.25;45.92
56414;BME280;42318;48.452;19.526;2023-02-28T06:47:15;99359.44;;;19.12;46.00
56414;BME280;42318;48.452;19.526;2023-02-28T06:54:46;99353.41;;;19.10;46.19
56414;BME280;42318;48.452;19.526;2023-02-28T07:02:16;99357.78;;;19.11;46.29
56414;BME280;42318;48.452;19.526;2023-02-28T07:09:47;99357.69;;;19.18;46.11
56414;BME280;42318;48.452;19.526;2023-02-28T07:17:18;99361.59;;;19.22;45.89
56414;BME280;42318;48.452;19.526;2023-02-28T07:24:49;99374.50;;;19.27;45.65
56414;BME280;42318;48.452;19.526;2023-02-28T07:32:20;99377.44;;;19.25;45.69
56414;BME280;42318;48.452;19.526;2023-02-28T07:39:51;99382.06;;;19.25;45.96
56414;BME280;42318;48.452;19.526;2023-02-28T07:47:22;99377.06;;;19.22;45.97
56414;BME280;42318;48.452;19.526;2023-02-28T07:54:53;99377.91;;;19.22;46.22
56414;BME280;42318;48.452;19.526;2023-02-28T08:02:24;99382.06;;;19.25;46.01
56414;BME280;42318;48.452;19.526;2023-02-28T08:09:55;99380.75;;;19.27;46.17
56414;BME280;42318;48.452;19.526;2023-02-28T08:17:26;99391.84;;;19.26;46.27
56414;BME280;42318;48.452;19.526;2023-02-28T08:24:56;99392.38;;;19.34;46.43
56414;BME280;42318;48.452;19.526;2023-02-28T08:32:27;99385.38;;;19.27;47.67
56414;BME280;42318;48.452;19.526;2023-02-28T08:39:58;99398.53;;;19.11;48.66
56414;BME280;42318;48.452;19.526;2023-02-28T08:47:29;99401.06;;;19.06;48.57
56414;BME280;42318;48.452;19.526;2023-02-28T08:55:00;99395.63;;;19.06;48.43
56414;BME280;42318;48.452;19.526;2023-02-28T09:02:31;99391.88;;;19.07;48.25
56414;BME280;42318;48.452;19.526;2023-02-28T09:10:02;99387.47;;;19.25;48.28
56414;BME280;42318;48.452;19.526;2023-02-28T09:17:33;99396.97;;;19.34;48.27
56414;BME280;42318;48.452;19.526;2023-02-28T09:25:04;99398.50;;;19.30;48.57
56414;BME280;42318;48.452;19.526;2023-02-28T09:32:35;99394.28;;;19.16;48.90
56414;BME280;42318;48.452;19.526;2023-02-28T09:40:06;99387.06;;;19.09;48.51
56414;BME280;42318;48.452;19.526;2023-02-28T09:47:40;99385.19;;;19.10;48.67
56414;BME280;42318;48.452;19.526;2023-02-28T09:55:38;99392.09;;;19.06;49.07
56414;BME280;42318;48.452;19.526;2023-02-28T10:03:34;99390.06;;;19.01;48.86
56414;BME280;42318;48.452;19.526;2023-02-28T10:11:09;99396.31;;;19.20;48.71
56414;BME280;42318;48.452;19.526;2023-02-28T10:18:58;99399.34;;;19.12;49.00
56414;BME280;42318;48.452;19.526;2023-02-28T10:26:32;99393.56;;;19.08;49.12
56414;BME280;42318;48.452;19.526;2023-02-28T10:34:03;99391.88;;;19.07;48.93
56414;BME280;42318;48.452;19.526;2023-02-28T10:41:42;99383.09;;;19.05;49.30
56414;BME280;42318;48.452;19.526;2023-02-28T10:49:24;99380.84;;;19.02;48.90
56414;BME280;42318;48.452;19.526;2023-02-28T10:57:25;99369.38;;;19.00;48.88
56414;BME280;42318;48.452;19.526;2023-02-28T11:04:56;99365.63;;;19.01;48.84
56414;BME280;42318;48.452;19.526;2023-02-28T11:12:39;99355.34;;;19.03;48.72
56414;BME280;42318;48.452;19.526;2023-02-28T11:20:21;99356.41;;;19.21;48.77
56414;BME280;42318;48.452;19.526;2023-02-28T11:28:24;99346.03;;;19.29;48.99
56414;BME280;42318;48.452;19.526;2023-02-28T11:36:03;99343.56;;;19.28;48.96
56414;BME280;42318;48.452;19.526;2023-02-28T11:51:27;99331.47;;;19.24;49.62
56414;BME280;42318;48.452;19.526;2023-02-28T12:22:29;99304.38;;;19.47;52.15
56414;BME280;42318;48.452;19.526;2023-02-28T12:30:23;99297.44;;;19.51;52.31
56414;BME280;42318;48.452;19.526;2023-02-28T12:38:06;99289.09;;;19.64;52.66
56414;BME280;42318;48.452;19.526;2023-02-28T12:45:49;99283.66;;;19.64;52.59
56414;BME280;42318;48.452;19.526;2023-02-28T12:53:41;99290.75;;;19.65;53.06
56414;BME280;42318;48.452;19.526;2023-02-28T13:09:02;99281.88;;;19.58;52.16
56414;BME280;42318;48.452;19.526;2023-02-28T13:16:55;99268.28;;;19.58;52.16
56414;BME280;42318;48.452;19.526;2023-02-28T13:32:32;99258.31;;;19.52;51.97
56414;BME280;42318;48.452;19.526;2023-02-28T13:47:43;99233.88;;;19.52;51.09
56414;BME280;42318;48.452;19.526;2023-02-28T14:10:52;99250.22;;;19.64;50.70
56414;BME280;42318;48.452;19.526;2023-02-28T14:18:37;99254.94;;;19.57;50.35
56414;BME280;42318;48.452;19.526;2023-02-28T14:26:32;99247.91;;;19.49;50.51
56414;BME280;42318;48.452;19.526;2023-02-28T14:41:38;99254.78;;;19.52;50.60
56414;BME280;42318;48.452;19.526;2023-02-28T14:49:17;99251.66;;;19.48;50.60
56414;BME280;42318;48.452;19.526;2023-02-28T14:56:50;99262.53;;;19.48;50.56
56414;BME280;42318;48.452;19.526;2023-02-28T15:04:26;99266.28;;;19.65;50.14
56414;BME280;42318;48.452;19.526;2023-02-28T15:11:57;99249.03;;;19.60;50.44
56414;BME280;42318;48.452;19.526;2023-02-28T15:19:34;99250.44;;;19.62;49.87
56414;BME280;42318;48.452;19.526;2023-02-28T15:27:13;99249.84;;;19.60;49.82
56414;BME280;42318;48.452;19.526;2023-02-28T15:34:46;99247.47;;;19.52;50.38
56414;BME280;42318;48.452;19.526;2023-02-28T15:42:19;99236.66;;;19.45;49.93
56414;BME280;42318;48.452;19.526;2023-02-28T15:50:09;99235.13;;;19.38;50.27
56414;BME280;42318;48.452;19.526;2023-02-28T15:57:44;99229.09;;;19.48;49.86
56414;BME280;42318;48.452;19.526;2023-02-28T16:05:25;99223.31;;;19.44;49.92
56414;BME280;42318;48.452;19.526;2023-02-28T16:13:02;99236.31;;;19.42;49.87
56414;BME280;42318;48.452;19.526;2023-02-28T16:20:32;99239.72;;;19.37;49.73
56414;BME280;42318;48.452;19.526;2023-02-28T16:28:04;99231.56;;;19.26;49.90
56414;BME280;42318;48.452;19.526;2023-02-28T16:35:39;99243.50;;;19.36;49.25
56414;BME280;42318;48.452;19.526;2023-02-28T16:43:15;99254.28;;;19.43;49.65
56414;BME280;42318;48.452;19.526;2023-02-28T16:50:46;99253.28;;;19.56;49.18
56414;BME280;42318;48.452;19.526;2023-02-28T16:58:17;99253.56;;;19.48;49.17
56414;BME280;42318;48.452;19.526;2023-02-28T17:05:49;99264.63;;;19.53;49.05
56414;BME280;42318;48.452;19.526;2023-02-28T17:13:20;99274.00;;;19.50;49.16
56414;BME280;42318;48.452;19.526;2023-02-28T17:20:51;99273.97;;;19.57;48.80
56414;BME280;42318;48.452;19.526;2023-02-28T17:28:22;99275.38;;;19.59;48.52
56414;BME280;42318;48.452;19.526;2023-02-28T17:35:52;99272.53;;;19.54;48.74
56414;BME280;42318;48.452;19.526;2023-02-28T17:43:25;99279.69;;;19.49;48.52
56414;BME280;42318;48.452;19.526;2023-02-28T17:50:56;99273.13;;;19.56;48.51
56414;BME280;42318;48.452;19.526;2023-02-28T17:58:26;99285.72;;;19.51;48.42
56414;BME280;42318;48.452;19.526;2023-02-28T18:05:58;99280.06;;;19.52;48.69
56414;BME280;42318;48.452;19.526;2023-02-28T18:13:29;99277.31;;;19.40;48.71
56414;BME280;42318;48.452;19.526;2023-02-28T18:20:59;99278.25;;;19.46;48.63
56414;BME280;42318;48.452;19.526;2023-02-28T18:28:31;99276.13;;;19.48;48.42
56414;BME280;42318;48.452;19.526;2023-02-28T18:36:05;99270.47;;;19.50;48.37
56414;BME280;42318;48.452;19.526;2023-02-28T18:43:37;99277.75;;;19.56;48.54
56414;BME280;42318;48.452;19.526;2023-02-28T18:51:16;99285.94;;;19.49;48.38
56414;BME280;42318;48.452;19.526;2023-02-28T18:58:48;99277.97;;;19.54;48.69
56414;BME280;42318;48.452;19.526;2023-02-28T19:06:19;99279.75;;;19.30;48.93
56414;BME280;42318;48.452;19.526;2023-02-28T19:13:50;99276.34;;;19.35;48.82
56414;BME280;42318;48.452;19.526;2023-02-28T19:21:22;99283.81;;;19.39;48.58
56414;BME280;42318;48.452;19.526;2023-02-28T19:28:53;99285.31;;;19.35;48.83
56414;BME280;42318;48.452;19.526;2023-02-28T19:36:24;99289.69;;;19.25;49.17
56414;BME280;42318;48.452;19.526;2023-02-28T19:43:54;99301.38;;;19.25;49.08
56414;BME280;42318;48.452;19.526;2023-02-28T19:51:25;99305.75;;;19.26;49.17
56414;BME280;42318;48.452;19.526;2023-02-28T19:58:57;99306.22;;;19.23;48.97
56414;BME280;42318;48.452;19.526;2023-02-28T20:06:30;99314.00;;;19.20;48.78
56414;BME280;42318;48.452;19.526;2023-02-28T20:14:01;99304.44;;;19.29;48.35
56414;BME280;42318;48.452;19.526;2023-02-28T20:21:35;99308.59;;;19.31;48.43
56414;BME280;42318;48.452;19.526;2023-02-28T20:29:06;99307.06;;;19.35;48.09
56414;BME280;42318;48.452;19.526;2023-02-28T20:36:37;99311.88;;;19.52;47.63
56414;BME280;42318;48.452;19.526;2023-02-28T20:44:11;99303.91;;;19.50;47.93
56414;BME280;42318;48.452;19.526;2023-02-28T20:51:42;99299.72;;;19.54;47.98
56414;BME280;42318;48.452;19.526;2023-02-28T20:59:13;99306.94;;;19.60;47.48
56414;BME280;42318;48.452;19.526;2023-02-28T21:06:44;99297.25;;;19.53;47.43
56414;BME280;42318;48.452;19.526;2023-02-28T21:14:17;99301.38;;;19.55;47.41
56414;BME280;42318;48.452;19.526;2023-02-28T21:21:47;99304.69;;;19.57;47.14
56414;BME280;42318;48.452;19.526;2023-02-28T21:29:18;99316.75;;;19.61;47.23
56414;BME280;42318;48.452;19.526;2023-02-28T21:36:49;99309.44;;;19.43;47.73
56414;BME280;42318;48.452;19.526;2023-02-28T21:44:20;99300.59;;;19.48;47.50
56414;BME280;42318;48.452;19.526;2023-02-28T21:51:52;99307.06;;;19.54;47.14
56414;BME280;42318;48.452;19.526;2023-02-28T21:59:22;99316.03;;;19.54;47.60
56414;BME280;42318;48.452;19.526;2023-02-28T22:06:54;99318.88;;;19.59;47.45
56414;BME280;42318;48.452;19.526;2023-02-28T22:14:26;99314.28;;;19.60;47.20
56414;BME280;42318;48.452;19.526;2023-02-28T22:21:57;99318.75;;;19.54;47.36
56414;BME280;42318;48.452;19.526;2023-02-28T22:29:28;99325.66;;;19.50;47.70
56414;BME280;42318;48.452;19.526;2023-02-28T22:36:59;99321.69;;;19.53;47.34
56414;BME280;42318;48.452;19.526;2023-02-28T22:44:30;99316.03;;;19.54;47.44
56414;BME280;42318;48.452;19.526;2023-02-28T22:52:00;99322.44;;;19.60;47.35
56414;BME280;42318;48.452;19.526;2023-02-28T22:59:31;99318.88;;;19.59;47.44
56414;BME280;42318;48.452;19.526;2023-02-28T23:07:02;99322.19;;;19.61;47.47
56414;BME280;42318;48.452;19.526;2023-02-28T23:14:34;99314.16;;;19.66;47.21
56414;BME280;42318;48.452;19.526;2023-02-28T23:22:04;99318.19;;;19.64;47.10
56414;BME280;42318;48.452;19.526;2023-02-28T23:29:35;99327.53;;;19.68;47.14
56414;BME280;42318;48.452;19.526;2023-02-28T23:37:06;99321.13;;;19.62;47.26
56414;BME280;42318;48.452;19.526;2023-02-28T23:44:37;99308.03;;;19.71;47.28
56414;BME280;42318;48.452;19.526;2023-02-28T23:52:08;99313.34;;;19.77;47.04
56414;BME280;42318;48.452;19.526;2023-02-28T23:59:39;99309.56;;;19.79;47.01
